Terminal Aerodrome Forecast
Issued by NWS

Home | Current Version | Previous Version | Text Only | Print | Product List | Glossary On
Versions: 1 2 3 4 5 6 7 8 9 10 11 12 13 14 15 16
972
FTUS43 KGRR 131720
TAFMKG
TAF
KMKG 131720Z 1318/1418 32013G21KT 2SM -SN OVC020
      TEMPO 1318/1320 3/4SM -SN OVC015
     FM132200 31008KT P6SM -SN BKN040
     FM140600 14003KT P6SM SCT040
     FM141500 14010KT P6SM SCT150=

USA.gov is the U.S. government's official web portal to all federal, state and local government web resources and services.